Shirahamamaru — JG4872 — position and weather

sailwx.info

Track history (hours):
 
Tides and Currents Weather Stations Pressure Air Temp Water Temp Dewpoint Dewpoint Depression Visibility Wind Speed Wind Dir Waves Ship Positions

Shirahamamaru

Last reported at 2016-Aug-25 21:33 UTC. Time now 2016-Aug-25 21:59 UTC.
Position N 35°13' E 139°44'.

Length 79 m; draft 3.2 m.

Type: Passenger vessel. MMSI: 431000239.

Date/timePositionNaut miles runAvg speedWind from/ knotsBaromVisibWave heightAir tempDewpointWater temp
2016-Aug-25 21:33N 35°13' E 139°44'1 0.1
2016-Aug-25 11:12N 35°13' E 139°43'6 8.8
2016-Aug-25 10:33N 35°10' E 139°49'3 3.3
2016-Aug-25 09:33N 35°12' E 139°46'1 1.5
2016-Aug-25 08:33N 35°11' E 139°47'3 2.7
2016-Aug-25 07:32N 35°13' E 139°44'3 2.9
2016-Aug-25 06:33N 35°11' E 139°47'4 2.0
2016-Aug-25 04:33N 35°13' E 139°43'0 0.3
2016-Aug-25 03:33N 35°13' E 139°43'6 5.9
2016-Aug-25 02:34N 35°10' E 139°49'5 4.5
2016-Aug-25 01:33N 35°13' E 139°44'3 2.6
2016-Aug-25 00:33N 35°11' E 139°47'3 2.7
2016-Aug-24 23:33N 35°13' E 139°44'2 1.8
2016-Aug-24 22:33N 35°12' E 139°46'1 1.3
2016-Aug-24 21:33N 35°13' E 139°45'2 0.2
2016-Aug-24 11:08N 35°13' E 139°43'6 9.7
2016-Aug-24 10:33N 35°10' E 139°49'3 3.1
2016-Aug-24 09:33N 35°12' E 139°46'1 1.4
2016-Aug-24 08:33N 35°11' E 139°47'2 2.3
2016-Aug-24 07:32N 35°13' E 139°45'2 2.5
2016-Aug-24 06:33N 35°12' E 139°47'4 1.9
2016-Aug-24 04:33N 35°13' E 139°43'0 0.3
2016-Aug-24 03:33N 35°13' E 139°43'6 5.7
2016-Aug-24 02:33N 35°10' E 139°49'5 4.6
2016-Aug-24 01:33N 35°13' E 139°44'3 2.6
2016-Aug-24 00:33N 35°12' E 139°47'2 2.2
2016-Aug-23 23:33N 35°13' E 139°45'1 1.1
2016-Aug-23 22:33N 35°12' E 139°46'1 1.2
2016-Aug-23 21:33N 35°13' E 139°45'2 0.2
2016-Aug-23 11:08N 35°13' E 139°43'6 9.8
2016-Aug-23 10:33N 35°10' E 139°49'3 2.9
2016-Aug-23 09:34N 35°12' E 139°46'1 1.2
2016-Aug-23 08:33N 35°12' E 139°47'2 2.4
2016-Aug-23 07:33N 35°13' E 139°45'2 2.2
2016-Aug-23 06:33N 35°11' E 139°47'2 2.1
2016-Aug-23 05:33N 35°10' E 139°49'6 5.9
2016-Aug-23 04:33N 35°13' E 139°43'1 0.5
2016-Aug-23 03:33N 35°13' E 139°44'5 5.3
2016-Aug-23 02:33N 35°10' E 139°49'5 4.7
2016-Aug-23 01:31N 35°13' E 139°44'3 2.9
2016-Aug-23 00:34N 35°12' E 139°47'2 2.3
2016-Aug-22 23:33N 35°13' E 139°45'1 1.3
2016-Aug-22 22:34N 35°13' E 139°46'2 1.7
2016-Aug-22 21:33N 35°14' E 139°46'6 6.4
2016-Aug-22 20:33N 35°19' E 139°40'0 0.1
2016-Aug-22 19:34N 35°19' E 139°40'0 0.0
2016-Aug-22 18:34N 35°19' E 139°40'0 0.0
2016-Aug-22 17:33N 35°19' E 139°40'0 0.0
2016-Aug-22 16:33N 35°19' E 139°40'0 0.0
2016-Aug-22 15:33N 35°19' E 139°40'0 0.0
2016-Aug-22 14:33N 35°19' E 139°40'0 0.0
2016-Aug-22 13:32N 35°19' E 139°40'0 0.1
2016-Aug-22 12:34N 35°19' E 139°40'0 0.0
2016-Aug-22 11:33N 35°19' E 139°40'0 0.0
2016-Aug-22 10:33N 35°19' E 139°40'0 0.0
2016-Aug-22 09:29N 35°19' E 139°40'0 0.0
2016-Aug-22 08:30N 35°19' E 139°40'0 0.0
2016-Aug-22 07:30N 35°19' E 139°40'0 0.0
2016-Aug-22 06:33N 35°19' E 139°40'0 0.0
2016-Aug-22 05:33N 35°19' E 139°40'0 0.1
2016-Aug-22 04:33N 35°19' E 139°40'0 0.1
2016-Aug-22 03:33N 35°19' E 139°40'0 0.0
2016-Aug-22 02:34N 35°19' E 139°40'0 0.0
2016-Aug-22 01:33N 35°19' E 139°40'0 0.0
2016-Aug-22 00:33N 35°19' E 139°40'0 0.0
2016-Aug-21 23:33N 35°19' E 139°40'0 0.2
2016-Aug-21 22:33N 35°18' E 139°40'0 0.0
2016-Aug-21 21:33N 35°18' E 139°40'0 0.0
2016-Aug-21 20:33N 35°18' E 139°40'0 0.0
2016-Aug-21 19:33N 35°18' E 139°40'0 0.0
2016-Aug-21 18:33N 35°18' E 139°40'0 0.0
2016-Aug-21 17:33N 35°18' E 139°40'0 0.0
2016-Aug-21 16:33N 35°18' E 139°40'0 0.0
2016-Aug-21 15:33N 35°18' E 139°40'0 0.0
2016-Aug-21 14:33N 35°18' E 139°40'0 0.0
2016-Aug-21 13:33N 35°18' E 139°40'0 0.0
2016-Aug-21 12:33N 35°18' E 139°40'0 0.0
2016-Aug-21 11:33N 35°18' E 139°40'0 0.0
2016-Aug-21 10:33N 35°18' E 139°40'0 0.0
2016-Aug-21 09:33N 35°19' E 139°40'0 0.0
2016-Aug-21 08:33N 35°19' E 139°40'4 4.4
2016-Aug-21 07:33N 35°16' E 139°45'5 5.2
2016-Aug-21 06:33N 35°11' E 139°47'2 2.4
2016-Aug-21 05:32N 35°13' E 139°45'2 1.7
2016-Aug-21 04:33N 35°12' E 139°46'1 0.9
2016-Aug-21 03:33N 35°13' E 139°46'2 1.9
2016-Aug-21 02:33N 35°11' E 139°47'3 2.5
2016-Aug-21 01:33N 35°13' E 139°45'2 2.4
2016-Aug-21 00:33N 35°11' E 139°47'3 2.6
2016-Aug-20 23:33N 35°13' E 139°44'2 1.6
2016-Aug-20 22:33N 35°12' E 139°46'1 1.3
2016-Aug-20 21:33N 35°13' E 139°45'2 0.1
2016-Aug-20 11:07N 35°13' E 139°43'610.1
2016-Aug-20 10:34N 35°10' E 139°49'4 3.7
2016-Aug-20 09:34N 35°13' E 139°46'2 1.7
2016-Aug-20 08:34N 35°12' E 139°47'2 2.2
2016-Aug-20 07:33N 35°13' E 139°45'2 2.3
2016-Aug-20 06:34N 35°11' E 139°47'2 2.5
2016-Aug-20 05:33N 35°13' E 139°45'2 1.6
2016-Aug-20 04:34N 35°12' E 139°46'0 0.3
2016-Aug-20 03:33N 35°12' E 139°46'1 1.2
2016-Aug-20 02:34N 35°11' E 139°47'2 2.3
2016-Aug-20 01:33N 35°13' E 139°45'3 2.8
2016-Aug-20 00:34N 35°10' E 139°47'3 2.6
2016-Aug-19 23:33N 35°13' E 139°45'1 1.2
2016-Aug-19 22:34N 35°12' E 139°46'1 1.3
2016-Aug-19 21:33N 35°13' E 139°45'1 0.1
2016-Aug-19 11:10N 35°13' E 139°43'6 9.3
2016-Aug-19 10:33N 35°10' E 139°49'3 3.1
2016-Aug-19 09:33N 35°12' E 139°46'1 1.3
2016-Aug-19 08:33N 35°11' E 139°47'2 2.3
2016-Aug-19 07:33N 35°13' E 139°45'2 2.2
2016-Aug-19 06:33N 35°12' E 139°47'2 2.2
2016-Aug-19 05:33N 35°13' E 139°45'1 1.4
2016-Aug-19 04:33N 35°12' E 139°46'0 0.4
2016-Aug-19 03:33N 35°12' E 139°46'1 1.4
2016-Aug-19 02:33N 35°12' E 139°47'3 2.5
2016-Aug-19 01:33N 35°13' E 139°45'3 2.5
2016-Aug-19 00:33N 35°11' E 139°47'2 2.5
2016-Aug-18 23:33N 35°13' E 139°45'1 1.3
2016-Aug-18 22:33N 35°12' E 139°46'1 1.4
2016-Aug-18 21:33N 35°13' E 139°44'1 0.1
2016-Aug-18 11:08N 35°13' E 139°43'6 9.7
2016-Aug-18 10:33N 35°10' E 139°49'3 3.1
2016-Aug-18 09:33N 35°12' E 139°45'1 1.3
2016-Aug-18 08:33N 35°11' E 139°47'2 2.2
2016-Aug-18 07:34N 35°13' E 139°45'3 2.6
2016-Aug-18 06:33N 35°11' E 139°47'3 2.6
2016-Aug-18 05:33N 35°13' E 139°45'1 1.4
2016-Aug-18 04:34N 35°12' E 139°46'1 0.6
2016-Aug-18 03:34N 35°12' E 139°46'1 1.2
2016-Aug-18 02:33N 35°11' E 139°47'3 2.6
2016-Aug-18 01:33N 35°13' E 139°45'3 2.5
2016-Aug-18 00:33N 35°11' E 139°47'3 2.6
2016-Aug-17 23:33N 35°13' E 139°44'2 1.5
2016-Aug-17 22:33N 35°12' E 139°46'2 1.5
2016-Aug-17 21:33N 35°13' E 139°44'1 0.0
2016-Aug-16 22:33N 35°13' E 139°44'2 0.8
2016-Aug-16 20:26N 35°15' E 139°43'0 0.0
2016-Aug-16 07:32N 35°15' E 139°43'4 1.2
2016-Aug-16 04:33N 35°12' E 139°46'0 0.5
2016-Aug-16 03:33N 35°12' E 139°45'2 1.6
2016-Aug-16 02:33N 35°11' E 139°47'2 2.4
2016-Aug-16 01:33N 35°13' E 139°45'3 2.5
2016-Aug-16 00:33N 35°11' E 139°47'3 2.7
2016-Aug-15 23:32N 35°13' E 139°44'1 1.5
2016-Aug-15 22:33N 35°12' E 139°46'  
Track history (hours):
 
Tides and Currents Weather Stations Pressure Air Temp Water Temp Dewpoint Dewpoint Depression Visibility Wind Speed Wind Dir Waves Ship Positions

Shirahamamaru

Last reported at 2016-Aug-25 21:33 UTC. Time now 2016-Aug-25 21:59 UTC.
Position N 35°13' E 139°44'.

Length 79 m; draft 3.2 m.

Type: Passenger vessel. MMSI: 431000239.

Date/timePositionNaut miles runAvg speedWind from/ knotsBaromVisibWave heightAir tempDewpointWater temp
2016-Aug-25 21:33N 35°13' E 139°44'1 0.1
2016-Aug-25 11:12N 35°13' E 139°43'6 8.8
2016-Aug-25 10:33N 35°10' E 139°49'3 3.3
2016-Aug-25 09:33N 35°12' E 139°46'1 1.5
2016-Aug-25 08:33N 35°11' E 139°47'3 2.7
2016-Aug-25 07:32N 35°13' E 139°44'3 2.9
2016-Aug-25 06:33N 35°11' E 139°47'4 2.0
2016-Aug-25 04:33N 35°13' E 139°43'0 0.3
2016-Aug-25 03:33N 35°13' E 139°43'6 5.9
2016-Aug-25 02:34N 35°10' E 139°49'5 4.5
2016-Aug-25 01:33N 35°13' E 139°44'3 2.6
2016-Aug-25 00:33N 35°11' E 139°47'3 2.7
2016-Aug-24 23:33N 35°13' E 139°44'2 1.8
2016-Aug-24 22:33N 35°12' E 139°46'1 1.3
2016-Aug-24 21:33N 35°13' E 139°45'2 0.2
2016-Aug-24 11:08N 35°13' E 139°43'6 9.7
2016-Aug-24 10:33N 35°10' E 139°49'3 3.1
2016-Aug-24 09:33N 35°12' E 139°46'1 1.4
2016-Aug-24 08:33N 35°11' E 139°47'2 2.3
2016-Aug-24 07:32N 35°13' E 139°45'2 2.5
2016-Aug-24 06:33N 35°12' E 139°47'4 1.9
2016-Aug-24 04:33N 35°13' E 139°43'0 0.3
2016-Aug-24 03:33N 35°13' E 139°43'6 5.7
2016-Aug-24 02:33N 35°10' E 139°49'5 4.6
2016-Aug-24 01:33N 35°13' E 139°44'3 2.6
2016-Aug-24 00:33N 35°12' E 139°47'2 2.2
2016-Aug-23 23:33N 35°13' E 139°45'1 1.1
2016-Aug-23 22:33N 35°12' E 139°46'1 1.2
2016-Aug-23 21:33N 35°13' E 139°45'2 0.2
2016-Aug-23 11:08N 35°13' E 139°43'6 9.8
2016-Aug-23 10:33N 35°10' E 139°49'3 2.9
2016-Aug-23 09:34N 35°12' E 139°46'1 1.2
2016-Aug-23 08:33N 35°12' E 139°47'2 2.4
2016-Aug-23 07:33N 35°13' E 139°45'2 2.2
2016-Aug-23 06:33N 35°11' E 139°47'2 2.1
2016-Aug-23 05:33N 35°10' E 139°49'6 5.9
2016-Aug-23 04:33N 35°13' E 139°43'1 0.5
2016-Aug-23 03:33N 35°13' E 139°44'5 5.3
2016-Aug-23 02:33N 35°10' E 139°49'5 4.7
2016-Aug-23 01:31N 35°13' E 139°44'3 2.9
2016-Aug-23 00:34N 35°12' E 139°47'2 2.3
2016-Aug-22 23:33N 35°13' E 139°45'1 1.3
2016-Aug-22 22:34N 35°13' E 139°46'2 1.7
2016-Aug-22 21:33N 35°14' E 139°46'6 6.4
2016-Aug-22 20:33N 35°19' E 139°40'0 0.1
2016-Aug-22 19:34N 35°19' E 139°40'0 0.0
2016-Aug-22 18:34N 35°19' E 139°40'0 0.0
2016-Aug-22 17:33N 35°19' E 139°40'0 0.0
2016-Aug-22 16:33N 35°19' E 139°40'0 0.0
2016-Aug-22 15:33N 35°19' E 139°40'0 0.0
2016-Aug-22 14:33N 35°19' E 139°40'0 0.0
2016-Aug-22 13:32N 35°19' E 139°40'0 0.1
2016-Aug-22 12:34N 35°19' E 139°40'0 0.0
2016-Aug-22 11:33N 35°19' E 139°40'0 0.0
2016-Aug-22 10:33N 35°19' E 139°40'0 0.0
2016-Aug-22 09:29N 35°19' E 139°40'0 0.0
2016-Aug-22 08:30N 35°19' E 139°40'0 0.0
2016-Aug-22 07:30N 35°19' E 139°40'0 0.0
2016-Aug-22 06:33N 35°19' E 139°40'0 0.0
2016-Aug-22 05:33N 35°19' E 139°40'0 0.1
2016-Aug-22 04:33N 35°19' E 139°40'0 0.1
2016-Aug-22 03:33N 35°19' E 139°40'0 0.0
2016-Aug-22 02:34N 35°19' E 139°40'0 0.0
2016-Aug-22 01:33N 35°19' E 139°40'0 0.0
2016-Aug-22 00:33N 35°19' E 139°40'0 0.0
2016-Aug-21 23:33N 35°19' E 139°40'0 0.2
2016-Aug-21 22:33N 35°18' E 139°40'0 0.0
2016-Aug-21 21:33N 35°18' E 139°40'0 0.0
2016-Aug-21 20:33N 35°18' E 139°40'0 0.0
2016-Aug-21 19:33N 35°18' E 139°40'0 0.0
2016-Aug-21 18:33N 35°18' E 139°40'0 0.0
2016-Aug-21 17:33N 35°18' E 139°40'0 0.0
2016-Aug-21 16:33N 35°18' E 139°40'0 0.0
2016-Aug-21 15:33N 35°18' E 139°40'0 0.0
2016-Aug-21 14:33N 35°18' E 139°40'0 0.0
2016-Aug-21 13:33N 35°18' E 139°40'0 0.0
2016-Aug-21 12:33N 35°18' E 139°40'0 0.0
2016-Aug-21 11:33N 35°18' E 139°40'0 0.0
2016-Aug-21 10:33N 35°18' E 139°40'0 0.0
2016-Aug-21 09:33N 35°19' E 139°40'0 0.0
2016-Aug-21 08:33N 35°19' E 139°40'4 4.4
2016-Aug-21 07:33N 35°16' E 139°45'5 5.2
2016-Aug-21 06:33N 35°11' E 139°47'2 2.4
2016-Aug-21 05:32N 35°13' E 139°45'2 1.7
2016-Aug-21 04:33N 35°12' E 139°46'1 0.9
2016-Aug-21 03:33N 35°13' E 139°46'2 1.9
2016-Aug-21 02:33N 35°11' E 139°47'3 2.5
2016-Aug-21 01:33N 35°13' E 139°45'2 2.4
2016-Aug-21 00:33N 35°11' E 139°47'3 2.6
2016-Aug-20 23:33N 35°13' E 139°44'2 1.6
2016-Aug-20 22:33N 35°12' E 139°46'1 1.3
2016-Aug-20 21:33N 35°13' E 139°45'2 0.1
2016-Aug-20 11:07N 35°13' E 139°43'610.1
2016-Aug-20 10:34N 35°10' E 139°49'4 3.7
2016-Aug-20 09:34N 35°13' E 139°46'2 1.7
2016-Aug-20 08:34N 35°12' E 139°47'2 2.2
2016-Aug-20 07:33N 35°13' E 139°45'2 2.3
2016-Aug-20 06:34N 35°11' E 139°47'2 2.5
2016-Aug-20 05:33N 35°13' E 139°45'2 1.6
2016-Aug-20 04:34N 35°12' E 139°46'0 0.3
2016-Aug-20 03:33N 35°12' E 139°46'1 1.2
2016-Aug-20 02:34N 35°11' E 139°47'2 2.3
2016-Aug-20 01:33N 35°13' E 139°45'3 2.8
2016-Aug-20 00:34N 35°10' E 139°47'3 2.6
2016-Aug-19 23:33N 35°13' E 139°45'1 1.2
2016-Aug-19 22:34N 35°12' E 139°46'1 1.3
2016-Aug-19 21:33N 35°13' E 139°45'1 0.1
2016-Aug-19 11:10N 35°13' E 139°43'6 9.3
2016-Aug-19 10:33N 35°10' E 139°49'3 3.1
2016-Aug-19 09:33N 35°12' E 139°46'1 1.3
2016-Aug-19 08:33N 35°11' E 139°47'2 2.3
2016-Aug-19 07:33N 35°13' E 139°45'2 2.2
2016-Aug-19 06:33N 35°12' E 139°47'2 2.2
2016-Aug-19 05:33N 35°13' E 139°45'1 1.4
2016-Aug-19 04:33N 35°12' E 139°46'0 0.4
2016-Aug-19 03:33N 35°12' E 139°46'1 1.4
2016-Aug-19 02:33N 35°12' E 139°47'3 2.5
2016-Aug-19 01:33N 35°13' E 139°45'3 2.5
2016-Aug-19 00:33N 35°11' E 139°47'2 2.5
2016-Aug-18 23:33N 35°13' E 139°45'1 1.3
2016-Aug-18 22:33N 35°12' E 139°46'1 1.4
2016-Aug-18 21:33N 35°13' E 139°44'1 0.1
2016-Aug-18 11:08N 35°13' E 139°43'6 9.7
2016-Aug-18 10:33N 35°10' E 139°49'3 3.1
2016-Aug-18 09:33N 35°12' E 139°45'1 1.3
2016-Aug-18 08:33N 35°11' E 139°47'2 2.2
2016-Aug-18 07:34N 35°13' E 139°45'3 2.6
2016-Aug-18 06:33N 35°11' E 139°47'3 2.6
2016-Aug-18 05:33N 35°13' E 139°45'1 1.4
2016-Aug-18 04:34N 35°12' E 139°46'1 0.6
2016-Aug-18 03:34N 35°12' E 139°46'1 1.2
2016-Aug-18 02:33N 35°11' E 139°47'3 2.6
2016-Aug-18 01:33N 35°13' E 139°45'3 2.5
2016-Aug-18 00:33N 35°11' E 139°47'3 2.6
2016-Aug-17 23:33N 35°13' E 139°44'2 1.5
2016-Aug-17 22:33N 35°12' E 139°46'2 1.5
2016-Aug-17 21:33N 35°13' E 139°44'1 0.0
2016-Aug-16 22:33N 35°13' E 139°44'2 0.8
2016-Aug-16 20:26N 35°15' E 139°43'0 0.0
2016-Aug-16 07:32N 35°15' E 139°43'4 1.2
2016-Aug-16 04:33N 35°12' E 139°46'0 0.5
2016-Aug-16 03:33N 35°12' E 139°45'2 1.6
2016-Aug-16 02:33N 35°11' E 139°47'2 2.4
2016-Aug-16 01:33N 35°13' E 139°45'3 2.5
2016-Aug-16 00:33N 35°11' E 139°47'3 2.7
2016-Aug-15 23:32N 35°13' E 139°44'1 1.5
2016-Aug-15 22:33N 35°12' E 139°46'  

Dump ship's entire track history